Terminal Aerodrome Forecast
Issued by NWS Missoula, MT

Home | Current Version | Previous Version | Text Only | Print | Product List | Glossary On
Versions: 1 2 3 4 5 6 7 8 9 10 11 12 13 14 15 16 17
000
FTUS45 KMSO 290532
TAFGPI
TAF
KGPI 290532Z 2906/3006 03005KT P6SM SCT100
      TEMPO 2911/2913 4SM BR SCT025 BKN035
     FM291300 13005KT P6SM SCT090=

USA.gov is the U.S. government's official web portal to all federal, state and local government web resources and services.